Hlavní strana
METAR-TAF:

METAR-TAF

Letiště :

Džidda, Saúdská Arábie

Mezinárodní letiště Krále Abda al-Azíze

zeměpisná šířka: 21-42N, zeměpisná délka: 039-11E, výška: 15 m

Aktuální stav počasí

Zpráva byla vytvořena před 1 hodinou a 7 minutami, v 21:00 UTC
Severní vítr 5 kt
Teplota 24°C
Vlhkost vzduchu 74%
Tlak 1011 hPa
Viditelnost 10 km a více
Skoro jasno ve výšce 4000 ft

METAR: OEJN 222100Z 01005KT 9999 FEW040 24/19 Q1011 NOSIG

Čas: 01:07 (22:07 UTC)

Předpověď počasí

Zpráva byla vytvořena před 5 hodinami a 7 minutami, v 17:00 UTC
Předpověď platná od 22 v 18 UTC do 23 v 24 UTC
Severovýchodní vítr 6 kt
Viditelnost: 7000 m
Polojasno ve výšce 3000 ft
Dočasný
od 22 v 22 UTC do 23 v 05 UTC
Viditelnost: 3000 m
Oblačno až skoro zataženo ve výšce 3000 ft
déšť, kouřmo
Změna
od 23 v 06 UTC do 23 v 08 UTC
Severoseverozápadní vítr 14 kt

TAF: OEJN 221700Z 2218/2324 04006KT 7000 SCT030 TEMPO 2222/2305 3000 RA BR BKN030 BECMG 2306/2308 34014KT

Stav a předpovědi počasí z více než 4 000 letišť (zprávy METAR a TAF).

Červené a žluté tečky na mapě představují dostupné meteorologické stanice.

Když kurzor umístíte na tečku, zobrazí se název stanice.

Pak kliknutím zobrazíte stav a předpověď počasí.

Chcete-li změnit mapu, kliknutím na zelené tlačítko se znaménkem +mapu přiblížíte, kliknutím na zelené tlačítko se znaménkem – mapu oddálíte a kliknutím na zelené šipky přejdete na sousední mapy.


METAR-TAF: